Daydream Believer — V7XJ3 — position and weather

sailwx.info

Track history (hours):
 
Tides and Currents Weather Stations Pressure Air Temp Water Temp Dewpoint Dewpoint Depression Visibility Wind Speed Wind Dir Waves Ship Positions

Daydream Believer

Last reported at 2017-Apr-24 07:28 UTC. Time now 2017-Apr-25 12:28 UTC.
Position N 34°26' W 123°54'.

Length 178 m; draft 10.7 m.

Type: Ship. MMSI: 538004493.

Date/timePositionNaut miles runAvg speedWind from/ knotsBaromVisibWave heightAir tempDewpointWater temp
2017-Apr-24 07:28N 34°26' W 123°54'810.5
2017-Apr-24 06:42N 34°26' W 123°44'210.6
2017-Apr-24 06:30N 34°26' W 123°41'9110.4
2017-Apr-23 21:44N 34°26' W 121°51'2 9.8
2017-Apr-23 21:30N 34°26' W 121°48'5 9.5
2017-Apr-23 20:59N 34°26' W 121°42'5 9.5
2017-Apr-23 20:30N 34°26' W 121°37'5 9.4
2017-Apr-23 20:00N 34°26' W 121°31'5 9.4
2017-Apr-23 19:30N 34°26' W 121°25'5 9.3
2017-Apr-23 19:00N 34°26' W 121°20'6 9.3
2017-Apr-23 18:18N 34°26' W 121°12'3 9.7
2017-Apr-23 18:00N 34°26' W 121°08'5 9.7
2017-Apr-23 17:30N 34°26' W 121°03'5 9.6
2017-Apr-23 17:00N 34°26' W 120°57'5 9.0
2017-Apr-23 16:30N 34°26' W 120°51'4 9.2
2017-Apr-23 16:00N 34°25' W 120°46'5 9.4
2017-Apr-23 15:30N 34°24' W 120°40'5 9.8
2017-Apr-23 15:00N 34°22' W 120°35'1110.0
2017-Apr-23 13:56N 34°20' W 120°22'510.5
2017-Apr-23 13:27N 34°18' W 120°16'510.8
2017-Apr-23 13:00N 34°17' W 120°10'510.4
2017-Apr-23 12:30N 34°15' W 120°04'510.4
2017-Apr-23 11:59N 34°14' W 119°58'510.5
2017-Apr-23 11:30N 34°13' W 119°52'510.2
2017-Apr-23 11:00N 34°11' W 119°46'510.4
2017-Apr-23 10:29N 34°10' W 119°40'510.2
2017-Apr-23 09:57N 34°08' W 119°34'510.1
2017-Apr-23 09:28N 34°07' W 119°28'510.1
2017-Apr-23 09:00N 34°06' W 119°23'510.6
2017-Apr-23 08:30N 34°05' W 119°16'510.6
2017-Apr-23 08:00N 34°02' W 119°11'611.0
2017-Apr-23 07:30N 33°59' W 119°05'611.5
2017-Apr-23 07:00N 33°57' W 118°59'611.3
2017-Apr-23 06:30N 33°54' W 118°53'611.0
2017-Apr-23 06:00N 33°51' W 118°47'611.2
2017-Apr-23 05:30N 33°48' W 118°41'611.0
2017-Apr-23 05:00N 33°45' W 118°36'511.0
2017-Apr-23 04:30N 33°43' W 118°30'510.9
2017-Apr-23 04:00N 33°40' W 118°24'510.5
2017-Apr-23 03:30N 33°38' W 118°18'510.5
2017-Apr-23 03:00N 33°40' W 118°12'4 7.7
2017-Apr-23 02:30N 33°43' W 118°11'1 2.2
2017-Apr-23 01:58N 33°44' W 118°13'0 0.0
2017-Apr-23 01:28N 33°44' W 118°13'0 0.0
2017-Apr-23 00:58N 33°44' W 118°13'0 0.0
2017-Apr-23 00:28N 33°44' W 118°13'0 0.0
2017-Apr-22 23:58N 33°44' W 118°13'0 0.0
2017-Apr-22 23:28N 33°44' W 118°13'0 0.0
2017-Apr-22 22:58N 33°44' W 118°13'0 0.0
2017-Apr-22 22:28N 33°44' W 118°13'0 0.0
2017-Apr-22 21:55N 33°44' W 118°13'0 0.0
2017-Apr-22 21:28N 33°44' W 118°13'0 0.0
2017-Apr-22 20:58N 33°44' W 118°13'0 0.0
2017-Apr-22 20:28N 33°44' W 118°13'0 0.0
2017-Apr-22 19:58N 33°44' W 118°13'0 0.1
2017-Apr-22 19:28N 33°44' W 118°13'0 0.0
2017-Apr-22 18:58N 33°44' W 118°13'0 0.1
2017-Apr-22 18:28N 33°44' W 118°13'0 0.0
2017-Apr-22 17:58N 33°44' W 118°13'0 0.1
2017-Apr-22 17:28N 33°44' W 118°13'0 0.1
2017-Apr-22 16:58N 33°43' W 118°13'0 0.1
2017-Apr-22 16:28N 33°43' W 118°13'0 0.1
2017-Apr-22 15:55N 33°43' W 118°13'0 0.0
2017-Apr-22 15:28N 33°43' W 118°13'0 0.1
2017-Apr-22 14:58N 33°43' W 118°13'0 0.3
2017-Apr-22 14:30N 33°43' W 118°13'3 3.0
2017-Apr-22 13:31N 33°46' W 118°15'0 0.0
2017-Apr-22 12:59N 33°46' W 118°15'0 0.0
2017-Apr-22 12:29N 33°46' W 118°15'0 0.0
2017-Apr-22 11:59N 33°46' W 118°15'0 0.0
2017-Apr-22 11:29N 33°46' W 118°15'0 0.0
2017-Apr-22 10:59N 33°46' W 118°15'0 0.0
2017-Apr-22 10:29N 33°46' W 118°15'0 0.0
2017-Apr-22 09:59N 33°46' W 118°15'0 0.0
2017-Apr-22 09:29N 33°46' W 118°15'0 0.0
2017-Apr-22 08:59N 33°46' W 118°15'0 0.0
2017-Apr-22 08:29N 33°46' W 118°15'0 0.0
2017-Apr-22 07:59N 33°46' W 118°15'0 0.0
2017-Apr-22 07:29N 33°46' W 118°15'0 0.0
2017-Apr-22 06:59N 33°46' W 118°15'0 0.0
2017-Apr-22 06:29N 33°46' W 118°15'0 0.0
2017-Apr-22 05:59N 33°46' W 118°15'0 0.0
2017-Apr-22 05:29N 33°46' W 118°15'0 0.1
2017-Apr-22 04:59N 33°46' W 118°15'0 0.0
2017-Apr-22 04:29N 33°46' W 118°15'0 0.0
2017-Apr-22 03:59N 33°46' W 118°15'0 0.0
2017-Apr-22 03:29N 33°46' W 118°15'0 0.0
2017-Apr-22 02:59N 33°46' W 118°15'0 0.0
2017-Apr-22 02:29N 33°46' W 118°15'0 0.0
2017-Apr-22 01:59N 33°46' W 118°15'0 0.0
2017-Apr-22 01:29N 33°46' W 118°15'0 0.0
2017-Apr-22 00:59N 33°46' W 118°15'0 0.0
2017-Apr-22 00:29N 33°46' W 118°15'0 0.0
2017-Apr-21 23:35N 33°46' W 118°15'0 0.0
2017-Apr-21 23:26N 33°46' W 118°15'0 0.0
2017-Apr-21 22:11N 33°46' W 118°15'0 0.0
2017-Apr-21 21:59N 33°46' W 118°15'0 0.0
2017-Apr-21 21:29N 33°46' W 118°15'0 0.0
2017-Apr-21 20:59N 33°46' W 118°15'0 0.0
2017-Apr-21 20:29N 33°46' W 118°15'0 0.0
2017-Apr-21 19:59N 33°46' W 118°15'0 0.0
2017-Apr-21 19:29N 33°46' W 118°15'0 0.0
2017-Apr-21 18:59N 33°46' W 118°15'0 0.0
2017-Apr-21 17:41N 33°46' W 118°15'0 0.0
2017-Apr-21 17:05N 33°46' W 118°15'0 0.5
2017-Apr-21 16:59N 33°46' W 118°15'0 0.0
2017-Apr-21 16:29N 33°46' W 118°15'0 0.0
2017-Apr-21 15:59N 33°46' W 118°15'0 0.0
2017-Apr-21 15:26N 33°46' W 118°15'0 0.0
2017-Apr-21 14:59N 33°46' W 118°15'0 0.0
2017-Apr-21 14:29N 33°46' W 118°15'0 0.0
2017-Apr-21 13:29N 33°46' W 118°15'0 0.0
2017-Apr-21 12:59N 33°46' W 118°15'0 0.0
2017-Apr-21 12:29N 33°46' W 118°15'0 0.0
2017-Apr-21 11:59N 33°46' W 118°15'0 0.0
2017-Apr-21 11:29N 33°46' W 118°15'0 0.0
2017-Apr-21 10:59N 33°46' W 118°15'0 0.0
2017-Apr-21 10:29N 33°46' W 118°15'0 0.0
2017-Apr-21 09:59N 33°46' W 118°15'0 0.0
2017-Apr-21 09:29N 33°46' W 118°15'0 0.0
2017-Apr-21 08:56N 33°46' W 118°15'0 0.0
2017-Apr-21 08:29N 33°46' W 118°15'0 0.0
2017-Apr-21 07:50N 33°46' W 118°15'0 0.0
2017-Apr-21 07:29N 33°46' W 118°15'0 0.0
2017-Apr-21 06:59N 33°46' W 118°15'0 0.0
2017-Apr-21 06:29N 33°46' W 118°15'0 0.0
2017-Apr-21 05:59N 33°46' W 118°15'0 0.0
2017-Apr-21 05:29N 33°46' W 118°15'0 0.0
2017-Apr-21 04:59N 33°46' W 118°15'0 0.0
2017-Apr-21 04:29N 33°46' W 118°15'0 0.0
2017-Apr-21 03:59N 33°46' W 118°15'0 0.1
2017-Apr-21 03:29N 33°46' W 118°15'0 0.0
2017-Apr-21 02:59N 33°46' W 118°15'0 0.1
2017-Apr-21 02:29N 33°46' W 118°15'0 0.0
2017-Apr-21 01:59N 33°46' W 118°15'0 0.0
2017-Apr-21 01:29N 33°46' W 118°15'0 0.0
2017-Apr-21 00:59N 33°46' W 118°15'0 0.1
2017-Apr-21 00:29N 33°46' W 118°15'0 0.0
2017-Apr-20 23:59N 33°46' W 118°15'0 0.0
2017-Apr-20 23:29N 33°46' W 118°15'0 0.0
2017-Apr-20 22:59N 33°46' W 118°15'0 0.0
2017-Apr-20 22:26N 33°46' W 118°15'0 0.0
2017-Apr-20 21:59N 33°46' W 118°15'0 0.0
2017-Apr-20 21:29N 33°46' W 118°15'0 0.0
2017-Apr-20 20:59N 33°46' W 118°15'0 0.0
2017-Apr-20 20:29N 33°46' W 118°15'0 0.0
2017-Apr-20 19:59N 33°46' W 118°15'0 0.0
2017-Apr-20 19:11N 33°46' W 118°15'0 0.0
2017-Apr-20 18:47N 33°46' W 118°15'0 0.0
2017-Apr-20 18:29N 33°46' W 118°15'0 0.0
2017-Apr-20 17:53N 33°46' W 118°15'0 0.0
2017-Apr-20 17:17N 33°46' W 118°15'0 0.0
2017-Apr-20 16:59N 33°46' W 118°15'0 0.0
2017-Apr-20 16:26N 33°46' W 118°15'0 0.0
2017-Apr-20 15:59N 33°46' W 118°15'0 0.0
2017-Apr-20 15:29N 33°46' W 118°15'0 0.0
2017-Apr-20 14:29N 33°46' W 118°15'0 0.0
2017-Apr-20 13:29N 33°46' W 118°15'0 0.0
2017-Apr-20 12:59N 33°46' W 118°15'0 0.0
2017-Apr-20 12:29N 33°46' W 118°15'0 0.0
2017-Apr-20 11:59N 33°46' W 118°15'0 0.0
2017-Apr-20 11:29N 33°46' W 118°15'0 0.0
2017-Apr-20 10:59N 33°46' W 118°15'0 0.0
2017-Apr-20 10:29N 33°46' W 118°15'0 0.0
2017-Apr-20 09:59N 33°46' W 118°15'0 0.0
2017-Apr-20 09:29N 33°46' W 118°15'0 0.0
2017-Apr-20 08:59N 33°46' W 118°15'0 0.0
2017-Apr-20 08:29N 33°46' W 118°15'0 0.0
2017-Apr-20 07:59N 33°46' W 118°15'0 0.0
2017-Apr-20 07:29N 33°46' W 118°15'0 0.0
2017-Apr-20 06:59N 33°46' W 118°15'0 0.0
2017-Apr-20 06:23N 33°46' W 118°15'0 0.0
2017-Apr-20 05:50N 33°46' W 118°15'0 0.0
2017-Apr-20 05:29N 33°46' W 118°15'0 0.0
2017-Apr-20 04:59N 33°46' W 118°15'0 0.0
2017-Apr-20 04:29N 33°46' W 118°15'0 0.0
2017-Apr-20 03:56N 33°46' W 118°15'0 0.0
2017-Apr-20 03:29N 33°46' W 118°15'0 0.0
2017-Apr-20 02:59N 33°46' W 118°15'0 0.0
2017-Apr-20 02:29N 33°46' W 118°15'0 0.0
2017-Apr-20 01:59N 33°46' W 118°15'0 0.0
2017-Apr-20 01:29N 33°46' W 118°15'0 0.0
2017-Apr-20 00:59N 33°46' W 118°15'0 0.0
2017-Apr-20 00:29N 33°46' W 118°15'0 0.0
2017-Apr-19 23:59N 33°46' W 118°15'0 0.0
2017-Apr-19 23:29N 33°46' W 118°15'0 0.0
2017-Apr-19 22:59N 33°46' W 118°15'0 0.0
2017-Apr-19 22:29N 33°46' W 118°15'0 0.0
2017-Apr-19 21:59N 33°46' W 118°15'0 0.0
2017-Apr-19 21:26N 33°46' W 118°15'0 0.0
2017-Apr-19 20:59N 33°46' W 118°15'0 0.0
2017-Apr-19 20:29N 33°46' W 118°15'0 0.0
2017-Apr-19 19:59N 33°46' W 118°15'0 0.0
2017-Apr-19 19:17N 33°46' W 118°15'0 0.0
2017-Apr-19 18:47N 33°46' W 118°15'0 0.0
2017-Apr-19 18:29N 33°46' W 118°15'0 0.0
2017-Apr-19 17:47N 33°46' W 118°15'0 0.0
2017-Apr-19 12:05N 33°46' W 118°15'0 0.0
2017-Apr-19 11:47N 33°46' W 118°15'0 0.0
2017-Apr-19 04:41N 33°46' W 118°15'0 0.0
2017-Apr-19 04:29N 33°46' W 118°15'0 0.0
2017-Apr-19 03:23N 33°46' W 118°15'0 0.0
2017-Apr-19 02:59N 33°46' W 118°15'0 0.0
2017-Apr-19 02:23N 33°46' W 118°15'0 0.0
2017-Apr-19 01:59N 33°46' W 118°15'0 0.0
2017-Apr-19 01:29N 33°46' W 118°15'0 0.0
2017-Apr-19 00:41N 33°46' W 118°15'0 0.0
2017-Apr-19 00:17N 33°46' W 118°15'0 0.0
2017-Apr-18 23:53N 33°46' W 118°15'0 0.0
2017-Apr-18 23:29N 33°46' W 118°15'0 0.0
2017-Apr-18 22:59N 33°46' W 118°15'0 0.0
2017-Apr-18 22:17N 33°46' W 118°15'0 0.0
2017-Apr-18 21:59N 33°46' W 118°15'0 0.0
2017-Apr-18 21:29N 33°46' W 118°15'0 0.0
2017-Apr-18 20:59N 33°46' W 118°15'0 0.0
2017-Apr-18 20:29N 33°46' W 118°15'0 0.0
2017-Apr-18 19:59N 33°46' W 118°15'0 0.0
2017-Apr-18 19:29N 33°46' W 118°15'0 0.0
2017-Apr-18 18:59N 33°46' W 118°15'0 0.0
2017-Apr-18 18:29N 33°46' W 118°15'0 0.0
2017-Apr-18 17:59N 33°46' W 118°15'0 0.0
2017-Apr-18 17:29N 33°46' W 118°15'0 0.0
2017-Apr-18 16:59N 33°46' W 118°15'0 0.0
2017-Apr-18 16:29N 33°46' W 118°15'0 0.0
2017-Apr-18 15:59N 33°46' W 118°15'0 0.0
2017-Apr-18 15:23N 33°46' W 118°15'0 0.0
2017-Apr-18 14:56N 33°46' W 118°15'0 0.0
2017-Apr-18 14:29N 33°46' W 118°15'0 0.0
2017-Apr-18 13:11N 33°46' W 118°15'0 0.0
2017-Apr-18 12:59N 33°46' W 118°15'0 0.0
2017-Apr-18 12:29N 33°46' W 118°15'0 0.0
2017-Apr-18 11:53N 33°46' W 118°15'0 0.0
2017-Apr-18 11:29N 33°46' W 118°15'0 0.0
2017-Apr-18 10:47N 33°46' W 118°15'0 0.0
2017-Apr-18 10:11N 33°46' W 118°15'0 0.0
2017-Apr-18 09:53N 33°46' W 118°15'0 0.0
2017-Apr-18 09:29N 33°46' W 118°15'0 0.0
2017-Apr-18 08:47N 33°46' W 118°15'0 0.0
2017-Apr-18 08:23N 33°46' W 118°15'0 0.0
2017-Apr-18 07:53N 33°46' W 118°15'0 0.0
2017-Apr-18 07:23N 33°46' W 118°15'0 0.0
2017-Apr-18 06:59N 33°46' W 118°15'0 0.0
2017-Apr-18 06:08N 33°46' W 118°15'0 0.0
2017-Apr-18 05:56N 33°46' W 118°15'0 0.0
2017-Apr-18 04:59N 33°46' W 118°15'0 0.0
2017-Apr-18 04:29N 33°46' W 118°15'0 0.0
2017-Apr-18 03:59N 33°46' W 118°15'0 0.0
2017-Apr-18 03:23N 33°46' W 118°15'0 0.0
2017-Apr-18 02:59N 33°46' W 118°15'0 0.0
2017-Apr-18 02:29N 33°46' W 118°15'0 0.0
2017-Apr-18 01:53N 33°46' W 118°15'0 0.0
2017-Apr-18 00:35N 33°46' W 118°15'0 0.0
2017-Apr-18 00:23N 33°46' W 118°15'0 0.0
2017-Apr-17 23:47N 33°46' W 118°15'0 0.0
2017-Apr-17 23:17N 33°46' W 118°15'0 0.0
2017-Apr-17 22:47N 33°46' W 118°15'0 0.0
2017-Apr-17 22:29N 33°46' W 118°15'0 0.0
2017-Apr-17 21:59N 33°46' W 118°15'0 0.0
2017-Apr-17 21:29N 33°46' W 118°15'0 0.0
2017-Apr-17 20:59N 33°46' W 118°15'0 0.0
2017-Apr-17 20:29N 33°46' W 118°15'0 0.0
2017-Apr-17 19:59N 33°46' W 118°15'0 0.0
2017-Apr-17 19:29N 33°46' W 118°15'0 0.0
2017-Apr-17 18:59N 33°46' W 118°15'0 0.0
2017-Apr-17 18:26N 33°46' W 118°15'0 0.0
2017-Apr-17 17:59N 33°46' W 118°15'0 0.0
2017-Apr-17 17:29N 33°46' W 118°15'0 0.0
2017-Apr-17 16:59N 33°46' W 118°15'0 0.0
2017-Apr-17 16:29N 33°46' W 118°15'0 0.0
2017-Apr-17 15:59N 33°46' W 118°15'0 0.0
2017-Apr-17 15:29N 33°46' W 118°15'0 0.0
2017-Apr-17 14:59N 33°46' W 118°15'0 0.0
2017-Apr-17 13:59N 33°46' W 118°15'0 0.0
2017-Apr-17 13:23N 33°46' W 118°15'0 0.5
2017-Apr-17 13:01N 33°46' W 118°15'2 3.5
2017-Apr-17 12:30N 33°44' W 118°17'1 1.6
2017-Apr-17 12:00N 33°44' W 118°16'3 5.6
2017-Apr-17 11:29N 33°43' W 118°13'0 0.3
2017-Apr-17 10:59N 33°43' W 118°13'0 0.0
2017-Apr-17 10:29N 33°43' W 118°13'0 0.0
2017-Apr-17 09:59N 33°43' W 118°13'0 0.0
2017-Apr-17 09:29N 33°43' W 118°13'0 0.0
2017-Apr-17 08:59N 33°43' W 118°13'0 0.0
2017-Apr-17 08:29N 33°43' W 118°13'0 0.0
2017-Apr-17 07:59N 33°43' W 118°13'0 0.0
2017-Apr-17 07:29N 33°43' W 118°13'0 0.0
2017-Apr-17 06:59N 33°43' W 118°13'0 0.0
2017-Apr-17 06:29N 33°43' W 118°13'0 0.0
2017-Apr-17 05:59N 33°43' W 118°13'0 0.1
2017-Apr-17 05:29N 33°43' W 118°13'0 0.0
2017-Apr-17 04:59N 33°43' W 118°13'0 0.0
2017-Apr-17 04:29N 33°43' W 118°13'0 0.1
2017-Apr-17 03:56N 33°43' W 118°13'0 0.1
2017-Apr-17 03:29N 33°43' W 118°13'0 0.0
2017-Apr-17 02:59N 33°43' W 118°13'0 0.0
2017-Apr-17 02:29N 33°43' W 118°13'0 0.0
2017-Apr-17 01:59N 33°43' W 118°13'0 0.0
2017-Apr-17 01:29N 33°43' W 118°13'0 0.0
2017-Apr-17 00:59N 33°43' W 118°13'0 0.0
2017-Apr-17 00:29N 33°43' W 118°13'0 0.0
2017-Apr-16 23:59N 33°43' W 118°13'0 0.0
2017-Apr-16 23:29N 33°43' W 118°13'0 0.0
2017-Apr-16 22:59N 33°43' W 118°13'0 0.0
2017-Apr-16 22:29N 33°43' W 118°13'0 0.0
2017-Apr-16 21:59N 33°43' W 118°13'0 0.1
2017-Apr-16 21:29N 33°43' W 118°13'0 0.0
2017-Apr-16 20:59N 33°43' W 118°13'0 0.0
2017-Apr-16 20:29N 33°43' W 118°13'0 0.0
2017-Apr-16 19:59N 33°43' W 118°13'0 0.0
2017-Apr-16 19:29N 33°43' W 118°13'0 0.0
2017-Apr-16 18:59N 33°43' W 118°13'0 0.0
2017-Apr-16 18:29N 33°43' W 118°13'0 0.0
2017-Apr-16 17:59N 33°43' W 118°13'0 0.0
2017-Apr-16 17:29N 33°43' W 118°13'0 0.0
2017-Apr-16 16:59N 33°43' W 118°13'0 0.1
2017-Apr-16 16:29N 33°43' W 118°13'0 0.1
2017-Apr-16 15:59N 33°43' W 118°13'0 0.0
2017-Apr-16 15:29N 33°43' W 118°13'0 0.0
2017-Apr-16 14:59N 33°43' W 118°13'0 0.0
2017-Apr-16 13:59N 33°43' W 118°13'0 0.1
2017-Apr-16 13:29N 33°43' W 118°13'0 0.1
2017-Apr-16 12:59N 33°43' W 118°13'0 0.0
2017-Apr-16 12:26N 33°43' W 118°13'0 0.0
2017-Apr-16 11:59N 33°43' W 118°13'0 0.0
2017-Apr-16 11:26N 33°43' W 118°13'0 0.1
2017-Apr-16 10:59N 33°43' W 118°13'0 0.1
2017-Apr-16 10:29N 33°43' W 118°13'0 0.0
2017-Apr-16 09:59N 33°43' W 118°13'0 0.0
2017-Apr-16 09:29N 33°43' W 118°13'0 0.1
2017-Apr-16 08:59N 33°43' W 118°13'0 0.2
2017-Apr-16 08:29N 33°43' W 118°13'0 0.0
2017-Apr-16 07:59N 33°43' W 118°13'0 0.1
2017-Apr-16 07:29N 33°43' W 118°13'0 0.0
2017-Apr-16 06:59N 33°43' W 118°13'0 0.0
2017-Apr-16 06:29N 33°43' W 118°13'0 0.1
2017-Apr-16 05:59N 33°43' W 118°13'0 0.0
2017-Apr-16 05:29N 33°43' W 118°13'0 0.0
2017-Apr-16 04:59N 33°43' W 118°13'0 0.0
2017-Apr-16 04:29N 33°43' W 118°13'0 0.0
2017-Apr-16 03:59N 33°43' W 118°13'0 0.0
2017-Apr-16 03:29N 33°43' W 118°13'0 0.0
2017-Apr-16 02:59N 33°43' W 118°13'0 0.0
2017-Apr-16 02:29N 33°43' W 118°13'0 0.0
2017-Apr-16 01:59N 33°43' W 118°13'0 0.0
2017-Apr-16 01:29N 33°43' W 118°13'0 0.0
2017-Apr-16 00:59N 33°43' W 118°13'0 0.0
2017-Apr-16 00:29N 33°43' W 118°13'0 0.0
2017-Apr-15 23:59N 33°43' W 118°13'0 0.0
2017-Apr-15 23:26N 33°43' W 118°13'0 0.0
2017-Apr-15 22:59N 33°43' W 118°13'0 0.0
2017-Apr-15 22:29N 33°43' W 118°13'0 0.0
2017-Apr-15 21:59N 33°43' W 118°13'0 0.0
2017-Apr-15 21:29N 33°43' W 118°13'0 0.1
2017-Apr-15 20:59N 33°43' W 118°13'0 0.4
2017-Apr-15 20:30N 33°42' W 118°13'1 1.6
2017-Apr-15 20:01N 33°42' W 118°13'2 4.6
2017-Apr-15 19:30N 33°39' W 118°13'4 8.4
2017-Apr-15 19:01N 33°36' W 118°16'510.9
2017-Apr-15 18:30N 33°37' W 118°23'611.9
2017-Apr-15 18:01N 33°40' W 118°29'611.9
2017-Apr-15 17:31N 33°43' W 118°35'611.8
2017-Apr-15 17:00N 33°46' W 118°41'611.7
2017-Apr-15 16:31N 33°49' W 118°47'611.8
2017-Apr-15 16:00N 33°52' W 118°54'611.9
2017-Apr-15 15:30N 33°55' W 118°60'611.9
2017-Apr-15 15:01N 33°58' W 119°06'1212.3
2017-Apr-15 14:00N 34°03' W 119°19'713.1
2017-Apr-15 13:31N 34°05' W 119°27'612.7
2017-Apr-15 13:01N 34°07' W 119°34'612.8
2017-Apr-15 12:30N 34°08' W 119°42'612.9
2017-Apr-15 12:01N 34°10' W 119°49'612.5
2017-Apr-15 11:30N 34°12' W 119°57'612.2
2017-Apr-15 11:00N 34°13' W 120°04'612.0
2017-Apr-15 10:28N 34°15' W 120°11'511.7
2017-Apr-15 10:00N 34°16' W 120°18'611.7
2017-Apr-15 09:30N 34°18' W 120°24'611.8
2017-Apr-15 09:00N 34°19' W 120°31'612.2
2017-Apr-15 08:30N 34°21' W 120°38'612.5
2017-Apr-15 08:00N 34°22' W 120°46'510.7
2017-Apr-15 07:30N 34°21' W 120°52'610.9
2017-Apr-15 07:00N 34°18' W 120°58'611.0
2017-Apr-15 06:30N 34°15' W 121°03'611.5
2017-Apr-15 06:00N 34°12' W 121°09'611.5
2017-Apr-15 05:30N 34°09' W 121°15'611.3
2017-Apr-15 05:00N 34°06' W 121°20'611.1
2017-Apr-15 04:31N 34°03' W 121°26'611.4
2017-Apr-15 04:01N 33°60' W 121°32'611.9
2017-Apr-15 03:30N 33°57' W 121°38'612.2
2017-Apr-15 03:01N 33°55' W 121°45'612.1
2017-Apr-15 02:30N 33°52' W 121°52'  
Track history (hours):
 
Tides and Currents Weather Stations Pressure Air Temp Water Temp Dewpoint Dewpoint Depression Visibility Wind Speed Wind Dir Waves Ship Positions

Daydream Believer

Last reported at 2017-Apr-24 07:28 UTC. Time now 2017-Apr-25 12:28 UTC.
Position N 34°26' W 123°54'.

Length 178 m; draft 10.7 m.

Type: Ship. MMSI: 538004493.

Date/timePositionNaut miles runAvg speedWind from/ knotsBaromVisibWave heightAir tempDewpointWater temp
2017-Apr-24 07:28N 34°26' W 123°54'810.5
2017-Apr-24 06:42N 34°26' W 123°44'210.6
2017-Apr-24 06:30N 34°26' W 123°41'9110.4
2017-Apr-23 21:44N 34°26' W 121°51'2 9.8
2017-Apr-23 21:30N 34°26' W 121°48'5 9.5
2017-Apr-23 20:59N 34°26' W 121°42'5 9.5
2017-Apr-23 20:30N 34°26' W 121°37'5 9.4
2017-Apr-23 20:00N 34°26' W 121°31'5 9.4
2017-Apr-23 19:30N 34°26' W 121°25'5 9.3
2017-Apr-23 19:00N 34°26' W 121°20'6 9.3
2017-Apr-23 18:18N 34°26' W 121°12'3 9.7
2017-Apr-23 18:00N 34°26' W 121°08'5 9.7
2017-Apr-23 17:30N 34°26' W 121°03'5 9.6
2017-Apr-23 17:00N 34°26' W 120°57'5 9.0
2017-Apr-23 16:30N 34°26' W 120°51'4 9.2
2017-Apr-23 16:00N 34°25' W 120°46'5 9.4
2017-Apr-23 15:30N 34°24' W 120°40'5 9.8
2017-Apr-23 15:00N 34°22' W 120°35'1110.0
2017-Apr-23 13:56N 34°20' W 120°22'510.5
2017-Apr-23 13:27N 34°18' W 120°16'510.8
2017-Apr-23 13:00N 34°17' W 120°10'510.4
2017-Apr-23 12:30N 34°15' W 120°04'510.4
2017-Apr-23 11:59N 34°14' W 119°58'510.5
2017-Apr-23 11:30N 34°13' W 119°52'510.2
2017-Apr-23 11:00N 34°11' W 119°46'510.4
2017-Apr-23 10:29N 34°10' W 119°40'510.2
2017-Apr-23 09:57N 34°08' W 119°34'510.1
2017-Apr-23 09:28N 34°07' W 119°28'510.1
2017-Apr-23 09:00N 34°06' W 119°23'510.6
2017-Apr-23 08:30N 34°05' W 119°16'510.6
2017-Apr-23 08:00N 34°02' W 119°11'611.0
2017-Apr-23 07:30N 33°59' W 119°05'611.5
2017-Apr-23 07:00N 33°57' W 118°59'611.3
2017-Apr-23 06:30N 33°54' W 118°53'611.0
2017-Apr-23 06:00N 33°51' W 118°47'611.2
2017-Apr-23 05:30N 33°48' W 118°41'611.0
2017-Apr-23 05:00N 33°45' W 118°36'511.0
2017-Apr-23 04:30N 33°43' W 118°30'510.9
2017-Apr-23 04:00N 33°40' W 118°24'510.5
2017-Apr-23 03:30N 33°38' W 118°18'510.5
2017-Apr-23 03:00N 33°40' W 118°12'4 7.7
2017-Apr-23 02:30N 33°43' W 118°11'1 2.2
2017-Apr-23 01:58N 33°44' W 118°13'0 0.0
2017-Apr-23 01:28N 33°44' W 118°13'0 0.0
2017-Apr-23 00:58N 33°44' W 118°13'0 0.0
2017-Apr-23 00:28N 33°44' W 118°13'0 0.0
2017-Apr-22 23:58N 33°44' W 118°13'0 0.0
2017-Apr-22 23:28N 33°44' W 118°13'0 0.0
2017-Apr-22 22:58N 33°44' W 118°13'0 0.0
2017-Apr-22 22:28N 33°44' W 118°13'0 0.0
2017-Apr-22 21:55N 33°44' W 118°13'0 0.0
2017-Apr-22 21:28N 33°44' W 118°13'0 0.0
2017-Apr-22 20:58N 33°44' W 118°13'0 0.0
2017-Apr-22 20:28N 33°44' W 118°13'0 0.0
2017-Apr-22 19:58N 33°44' W 118°13'0 0.1
2017-Apr-22 19:28N 33°44' W 118°13'0 0.0
2017-Apr-22 18:58N 33°44' W 118°13'0 0.1
2017-Apr-22 18:28N 33°44' W 118°13'0 0.0
2017-Apr-22 17:58N 33°44' W 118°13'0 0.1
2017-Apr-22 17:28N 33°44' W 118°13'0 0.1
2017-Apr-22 16:58N 33°43' W 118°13'0 0.1
2017-Apr-22 16:28N 33°43' W 118°13'0 0.1
2017-Apr-22 15:55N 33°43' W 118°13'0 0.0
2017-Apr-22 15:28N 33°43' W 118°13'0 0.1
2017-Apr-22 14:58N 33°43' W 118°13'0 0.3
2017-Apr-22 14:30N 33°43' W 118°13'3 3.0
2017-Apr-22 13:31N 33°46' W 118°15'0 0.0
2017-Apr-22 12:59N 33°46' W 118°15'0 0.0
2017-Apr-22 12:29N 33°46' W 118°15'0 0.0
2017-Apr-22 11:59N 33°46' W 118°15'0 0.0
2017-Apr-22 11:29N 33°46' W 118°15'0 0.0
2017-Apr-22 10:59N 33°46' W 118°15'0 0.0
2017-Apr-22 10:29N 33°46' W 118°15'0 0.0
2017-Apr-22 09:59N 33°46' W 118°15'0 0.0
2017-Apr-22 09:29N 33°46' W 118°15'0 0.0
2017-Apr-22 08:59N 33°46' W 118°15'0 0.0
2017-Apr-22 08:29N 33°46' W 118°15'0 0.0
2017-Apr-22 07:59N 33°46' W 118°15'0 0.0
2017-Apr-22 07:29N 33°46' W 118°15'0 0.0
2017-Apr-22 06:59N 33°46' W 118°15'0 0.0
2017-Apr-22 06:29N 33°46' W 118°15'0 0.0
2017-Apr-22 05:59N 33°46' W 118°15'0 0.0
2017-Apr-22 05:29N 33°46' W 118°15'0 0.1
2017-Apr-22 04:59N 33°46' W 118°15'0 0.0
2017-Apr-22 04:29N 33°46' W 118°15'0 0.0
2017-Apr-22 03:59N 33°46' W 118°15'0 0.0
2017-Apr-22 03:29N 33°46' W 118°15'0 0.0
2017-Apr-22 02:59N 33°46' W 118°15'0 0.0
2017-Apr-22 02:29N 33°46' W 118°15'0 0.0
2017-Apr-22 01:59N 33°46' W 118°15'0 0.0
2017-Apr-22 01:29N 33°46' W 118°15'0 0.0
2017-Apr-22 00:59N 33°46' W 118°15'0 0.0
2017-Apr-22 00:29N 33°46' W 118°15'0 0.0
2017-Apr-21 23:35N 33°46' W 118°15'0 0.0
2017-Apr-21 23:26N 33°46' W 118°15'0 0.0
2017-Apr-21 22:11N 33°46' W 118°15'0 0.0
2017-Apr-21 21:59N 33°46' W 118°15'0 0.0
2017-Apr-21 21:29N 33°46' W 118°15'0 0.0
2017-Apr-21 20:59N 33°46' W 118°15'0 0.0
2017-Apr-21 20:29N 33°46' W 118°15'0 0.0
2017-Apr-21 19:59N 33°46' W 118°15'0 0.0
2017-Apr-21 19:29N 33°46' W 118°15'0 0.0
2017-Apr-21 18:59N 33°46' W 118°15'0 0.0
2017-Apr-21 17:41N 33°46' W 118°15'0 0.0
2017-Apr-21 17:05N 33°46' W 118°15'0 0.5
2017-Apr-21 16:59N 33°46' W 118°15'0 0.0
2017-Apr-21 16:29N 33°46' W 118°15'0 0.0
2017-Apr-21 15:59N 33°46' W 118°15'0 0.0
2017-Apr-21 15:26N 33°46' W 118°15'0 0.0
2017-Apr-21 14:59N 33°46' W 118°15'0 0.0
2017-Apr-21 14:29N 33°46' W 118°15'0 0.0
2017-Apr-21 13:29N 33°46' W 118°15'0 0.0
2017-Apr-21 12:59N 33°46' W 118°15'0 0.0
2017-Apr-21 12:29N 33°46' W 118°15'0 0.0
2017-Apr-21 11:59N 33°46' W 118°15'0 0.0
2017-Apr-21 11:29N 33°46' W 118°15'0 0.0
2017-Apr-21 10:59N 33°46' W 118°15'0 0.0
2017-Apr-21 10:29N 33°46' W 118°15'0 0.0
2017-Apr-21 09:59N 33°46' W 118°15'0 0.0
2017-Apr-21 09:29N 33°46' W 118°15'0 0.0
2017-Apr-21 08:56N 33°46' W 118°15'0 0.0
2017-Apr-21 08:29N 33°46' W 118°15'0 0.0
2017-Apr-21 07:50N 33°46' W 118°15'0 0.0
2017-Apr-21 07:29N 33°46' W 118°15'0 0.0
2017-Apr-21 06:59N 33°46' W 118°15'0 0.0
2017-Apr-21 06:29N 33°46' W 118°15'0 0.0
2017-Apr-21 05:59N 33°46' W 118°15'0 0.0
2017-Apr-21 05:29N 33°46' W 118°15'0 0.0
2017-Apr-21 04:59N 33°46' W 118°15'0 0.0
2017-Apr-21 04:29N 33°46' W 118°15'0 0.0
2017-Apr-21 03:59N 33°46' W 118°15'0 0.1
2017-Apr-21 03:29N 33°46' W 118°15'0 0.0
2017-Apr-21 02:59N 33°46' W 118°15'0 0.1
2017-Apr-21 02:29N 33°46' W 118°15'0 0.0
2017-Apr-21 01:59N 33°46' W 118°15'0 0.0
2017-Apr-21 01:29N 33°46' W 118°15'0 0.0
2017-Apr-21 00:59N 33°46' W 118°15'0 0.1
2017-Apr-21 00:29N 33°46' W 118°15'0 0.0
2017-Apr-20 23:59N 33°46' W 118°15'0 0.0
2017-Apr-20 23:29N 33°46' W 118°15'0 0.0
2017-Apr-20 22:59N 33°46' W 118°15'0 0.0
2017-Apr-20 22:26N 33°46' W 118°15'0 0.0
2017-Apr-20 21:59N 33°46' W 118°15'0 0.0
2017-Apr-20 21:29N 33°46' W 118°15'0 0.0
2017-Apr-20 20:59N 33°46' W 118°15'0 0.0
2017-Apr-20 20:29N 33°46' W 118°15'0 0.0
2017-Apr-20 19:59N 33°46' W 118°15'0 0.0
2017-Apr-20 19:11N 33°46' W 118°15'0 0.0
2017-Apr-20 18:47N 33°46' W 118°15'0 0.0
2017-Apr-20 18:29N 33°46' W 118°15'0 0.0
2017-Apr-20 17:53N 33°46' W 118°15'0 0.0
2017-Apr-20 17:17N 33°46' W 118°15'0 0.0
2017-Apr-20 16:59N 33°46' W 118°15'0 0.0
2017-Apr-20 16:26N 33°46' W 118°15'0 0.0
2017-Apr-20 15:59N 33°46' W 118°15'0 0.0
2017-Apr-20 15:29N 33°46' W 118°15'0 0.0
2017-Apr-20 14:29N 33°46' W 118°15'0 0.0
2017-Apr-20 13:29N 33°46' W 118°15'0 0.0
2017-Apr-20 12:59N 33°46' W 118°15'0 0.0
2017-Apr-20 12:29N 33°46' W 118°15'0 0.0
2017-Apr-20 11:59N 33°46' W 118°15'0 0.0
2017-Apr-20 11:29N 33°46' W 118°15'0 0.0
2017-Apr-20 10:59N 33°46' W 118°15'0 0.0
2017-Apr-20 10:29N 33°46' W 118°15'0 0.0
2017-Apr-20 09:59N 33°46' W 118°15'0 0.0
2017-Apr-20 09:29N 33°46' W 118°15'0 0.0
2017-Apr-20 08:59N 33°46' W 118°15'0 0.0
2017-Apr-20 08:29N 33°46' W 118°15'0 0.0
2017-Apr-20 07:59N 33°46' W 118°15'0 0.0
2017-Apr-20 07:29N 33°46' W 118°15'0 0.0
2017-Apr-20 06:59N 33°46' W 118°15'0 0.0
2017-Apr-20 06:23N 33°46' W 118°15'0 0.0
2017-Apr-20 05:50N 33°46' W 118°15'0 0.0
2017-Apr-20 05:29N 33°46' W 118°15'0 0.0
2017-Apr-20 04:59N 33°46' W 118°15'0 0.0
2017-Apr-20 04:29N 33°46' W 118°15'0 0.0
2017-Apr-20 03:56N 33°46' W 118°15'0 0.0
2017-Apr-20 03:29N 33°46' W 118°15'0 0.0
2017-Apr-20 02:59N 33°46' W 118°15'0 0.0
2017-Apr-20 02:29N 33°46' W 118°15'0 0.0
2017-Apr-20 01:59N 33°46' W 118°15'0 0.0
2017-Apr-20 01:29N 33°46' W 118°15'0 0.0
2017-Apr-20 00:59N 33°46' W 118°15'0 0.0
2017-Apr-20 00:29N 33°46' W 118°15'0 0.0
2017-Apr-19 23:59N 33°46' W 118°15'0 0.0
2017-Apr-19 23:29N 33°46' W 118°15'0 0.0
2017-Apr-19 22:59N 33°46' W 118°15'0 0.0
2017-Apr-19 22:29N 33°46' W 118°15'0 0.0
2017-Apr-19 21:59N 33°46' W 118°15'0 0.0
2017-Apr-19 21:26N 33°46' W 118°15'0 0.0
2017-Apr-19 20:59N 33°46' W 118°15'0 0.0
2017-Apr-19 20:29N 33°46' W 118°15'0 0.0
2017-Apr-19 19:59N 33°46' W 118°15'0 0.0
2017-Apr-19 19:17N 33°46' W 118°15'0 0.0
2017-Apr-19 18:47N 33°46' W 118°15'0 0.0
2017-Apr-19 18:29N 33°46' W 118°15'0 0.0
2017-Apr-19 17:47N 33°46' W 118°15'0 0.0
2017-Apr-19 12:05N 33°46' W 118°15'0 0.0
2017-Apr-19 11:47N 33°46' W 118°15'0 0.0
2017-Apr-19 04:41N 33°46' W 118°15'0 0.0
2017-Apr-19 04:29N 33°46' W 118°15'0 0.0
2017-Apr-19 03:23N 33°46' W 118°15'0 0.0
2017-Apr-19 02:59N 33°46' W 118°15'0 0.0
2017-Apr-19 02:23N 33°46' W 118°15'0 0.0
2017-Apr-19 01:59N 33°46' W 118°15'0 0.0
2017-Apr-19 01:29N 33°46' W 118°15'0 0.0
2017-Apr-19 00:41N 33°46' W 118°15'0 0.0
2017-Apr-19 00:17N 33°46' W 118°15'0 0.0
2017-Apr-18 23:53N 33°46' W 118°15'0 0.0
2017-Apr-18 23:29N 33°46' W 118°15'0 0.0
2017-Apr-18 22:59N 33°46' W 118°15'0 0.0
2017-Apr-18 22:17N 33°46' W 118°15'0 0.0
2017-Apr-18 21:59N 33°46' W 118°15'0 0.0
2017-Apr-18 21:29N 33°46' W 118°15'0 0.0
2017-Apr-18 20:59N 33°46' W 118°15'0 0.0
2017-Apr-18 20:29N 33°46' W 118°15'0 0.0
2017-Apr-18 19:59N 33°46' W 118°15'0 0.0
2017-Apr-18 19:29N 33°46' W 118°15'0 0.0
2017-Apr-18 18:59N 33°46' W 118°15'0 0.0
2017-Apr-18 18:29N 33°46' W 118°15'0 0.0
2017-Apr-18 17:59N 33°46' W 118°15'0 0.0
2017-Apr-18 17:29N 33°46' W 118°15'0 0.0
2017-Apr-18 16:59N 33°46' W 118°15'0 0.0
2017-Apr-18 16:29N 33°46' W 118°15'0 0.0
2017-Apr-18 15:59N 33°46' W 118°15'0 0.0
2017-Apr-18 15:23N 33°46' W 118°15'0 0.0
2017-Apr-18 14:56N 33°46' W 118°15'0 0.0
2017-Apr-18 14:29N 33°46' W 118°15'0 0.0
2017-Apr-18 13:11N 33°46' W 118°15'0 0.0
2017-Apr-18 12:59N 33°46' W 118°15'0 0.0
2017-Apr-18 12:29N 33°46' W 118°15'0 0.0
2017-Apr-18 11:53N 33°46' W 118°15'0 0.0
2017-Apr-18 11:29N 33°46' W 118°15'0 0.0
2017-Apr-18 10:47N 33°46' W 118°15'0 0.0
2017-Apr-18 10:11N 33°46' W 118°15'0 0.0
2017-Apr-18 09:53N 33°46' W 118°15'0 0.0
2017-Apr-18 09:29N 33°46' W 118°15'0 0.0
2017-Apr-18 08:47N 33°46' W 118°15'0 0.0
2017-Apr-18 08:23N 33°46' W 118°15'0 0.0
2017-Apr-18 07:53N 33°46' W 118°15'0 0.0
2017-Apr-18 07:23N 33°46' W 118°15'0 0.0
2017-Apr-18 06:59N 33°46' W 118°15'0 0.0
2017-Apr-18 06:08N 33°46' W 118°15'0 0.0
2017-Apr-18 05:56N 33°46' W 118°15'0 0.0
2017-Apr-18 04:59N 33°46' W 118°15'0 0.0
2017-Apr-18 04:29N 33°46' W 118°15'0 0.0
2017-Apr-18 03:59N 33°46' W 118°15'0 0.0
2017-Apr-18 03:23N 33°46' W 118°15'0 0.0
2017-Apr-18 02:59N 33°46' W 118°15'0 0.0
2017-Apr-18 02:29N 33°46' W 118°15'0 0.0
2017-Apr-18 01:53N 33°46' W 118°15'0 0.0
2017-Apr-18 00:35N 33°46' W 118°15'0 0.0
2017-Apr-18 00:23N 33°46' W 118°15'0 0.0
2017-Apr-17 23:47N 33°46' W 118°15'0 0.0
2017-Apr-17 23:17N 33°46' W 118°15'0 0.0
2017-Apr-17 22:47N 33°46' W 118°15'0 0.0
2017-Apr-17 22:29N 33°46' W 118°15'0 0.0
2017-Apr-17 21:59N 33°46' W 118°15'0 0.0
2017-Apr-17 21:29N 33°46' W 118°15'0 0.0
2017-Apr-17 20:59N 33°46' W 118°15'0 0.0
2017-Apr-17 20:29N 33°46' W 118°15'0 0.0
2017-Apr-17 19:59N 33°46' W 118°15'0 0.0
2017-Apr-17 19:29N 33°46' W 118°15'0 0.0
2017-Apr-17 18:59N 33°46' W 118°15'0 0.0
2017-Apr-17 18:26N 33°46' W 118°15'0 0.0
2017-Apr-17 17:59N 33°46' W 118°15'0 0.0
2017-Apr-17 17:29N 33°46' W 118°15'0 0.0
2017-Apr-17 16:59N 33°46' W 118°15'0 0.0
2017-Apr-17 16:29N 33°46' W 118°15'0 0.0
2017-Apr-17 15:59N 33°46' W 118°15'0 0.0
2017-Apr-17 15:29N 33°46' W 118°15'0 0.0
2017-Apr-17 14:59N 33°46' W 118°15'0 0.0
2017-Apr-17 13:59N 33°46' W 118°15'0 0.0
2017-Apr-17 13:23N 33°46' W 118°15'0 0.5
2017-Apr-17 13:01N 33°46' W 118°15'2 3.5
2017-Apr-17 12:30N 33°44' W 118°17'1 1.6
2017-Apr-17 12:00N 33°44' W 118°16'3 5.6
2017-Apr-17 11:29N 33°43' W 118°13'0 0.3
2017-Apr-17 10:59N 33°43' W 118°13'0 0.0
2017-Apr-17 10:29N 33°43' W 118°13'0 0.0
2017-Apr-17 09:59N 33°43' W 118°13'0 0.0
2017-Apr-17 09:29N 33°43' W 118°13'0 0.0
2017-Apr-17 08:59N 33°43' W 118°13'0 0.0
2017-Apr-17 08:29N 33°43' W 118°13'0 0.0
2017-Apr-17 07:59N 33°43' W 118°13'0 0.0
2017-Apr-17 07:29N 33°43' W 118°13'0 0.0
2017-Apr-17 06:59N 33°43' W 118°13'0 0.0
2017-Apr-17 06:29N 33°43' W 118°13'0 0.0
2017-Apr-17 05:59N 33°43' W 118°13'0 0.1
2017-Apr-17 05:29N 33°43' W 118°13'0 0.0
2017-Apr-17 04:59N 33°43' W 118°13'0 0.0
2017-Apr-17 04:29N 33°43' W 118°13'0 0.1
2017-Apr-17 03:56N 33°43' W 118°13'0 0.1
2017-Apr-17 03:29N 33°43' W 118°13'0 0.0
2017-Apr-17 02:59N 33°43' W 118°13'0 0.0
2017-Apr-17 02:29N 33°43' W 118°13'0 0.0
2017-Apr-17 01:59N 33°43' W 118°13'0 0.0
2017-Apr-17 01:29N 33°43' W 118°13'0 0.0
2017-Apr-17 00:59N 33°43' W 118°13'0 0.0
2017-Apr-17 00:29N 33°43' W 118°13'0 0.0
2017-Apr-16 23:59N 33°43' W 118°13'0 0.0
2017-Apr-16 23:29N 33°43' W 118°13'0 0.0
2017-Apr-16 22:59N 33°43' W 118°13'0 0.0
2017-Apr-16 22:29N 33°43' W 118°13'0 0.0
2017-Apr-16 21:59N 33°43' W 118°13'0 0.1
2017-Apr-16 21:29N 33°43' W 118°13'0 0.0
2017-Apr-16 20:59N 33°43' W 118°13'0 0.0
2017-Apr-16 20:29N 33°43' W 118°13'0 0.0
2017-Apr-16 19:59N 33°43' W 118°13'0 0.0
2017-Apr-16 19:29N 33°43' W 118°13'0 0.0
2017-Apr-16 18:59N 33°43' W 118°13'0 0.0
2017-Apr-16 18:29N 33°43' W 118°13'0 0.0
2017-Apr-16 17:59N 33°43' W 118°13'0 0.0
2017-Apr-16 17:29N 33°43' W 118°13'0 0.0
2017-Apr-16 16:59N 33°43' W 118°13'0 0.1
2017-Apr-16 16:29N 33°43' W 118°13'0 0.1
2017-Apr-16 15:59N 33°43' W 118°13'0 0.0
2017-Apr-16 15:29N 33°43' W 118°13'0 0.0
2017-Apr-16 14:59N 33°43' W 118°13'0 0.0
2017-Apr-16 13:59N 33°43' W 118°13'0 0.1
2017-Apr-16 13:29N 33°43' W 118°13'0 0.1
2017-Apr-16 12:59N 33°43' W 118°13'0 0.0
2017-Apr-16 12:26N 33°43' W 118°13'0 0.0
2017-Apr-16 11:59N 33°43' W 118°13'0 0.0
2017-Apr-16 11:26N 33°43' W 118°13'0 0.1
2017-Apr-16 10:59N 33°43' W 118°13'0 0.1
2017-Apr-16 10:29N 33°43' W 118°13'0 0.0
2017-Apr-16 09:59N 33°43' W 118°13'0 0.0
2017-Apr-16 09:29N 33°43' W 118°13'0 0.1
2017-Apr-16 08:59N 33°43' W 118°13'0 0.2
2017-Apr-16 08:29N 33°43' W 118°13'0 0.0
2017-Apr-16 07:59N 33°43' W 118°13'0 0.1
2017-Apr-16 07:29N 33°43' W 118°13'0 0.0
2017-Apr-16 06:59N 33°43' W 118°13'0 0.0
2017-Apr-16 06:29N 33°43' W 118°13'0 0.1
2017-Apr-16 05:59N 33°43' W 118°13'0 0.0
2017-Apr-16 05:29N 33°43' W 118°13'0 0.0
2017-Apr-16 04:59N 33°43' W 118°13'0 0.0
2017-Apr-16 04:29N 33°43' W 118°13'0 0.0
2017-Apr-16 03:59N 33°43' W 118°13'0 0.0
2017-Apr-16 03:29N 33°43' W 118°13'0 0.0
2017-Apr-16 02:59N 33°43' W 118°13'0 0.0
2017-Apr-16 02:29N 33°43' W 118°13'0 0.0
2017-Apr-16 01:59N 33°43' W 118°13'0 0.0
2017-Apr-16 01:29N 33°43' W 118°13'0 0.0
2017-Apr-16 00:59N 33°43' W 118°13'0 0.0
2017-Apr-16 00:29N 33°43' W 118°13'0 0.0
2017-Apr-15 23:59N 33°43' W 118°13'0 0.0
2017-Apr-15 23:26N 33°43' W 118°13'0 0.0
2017-Apr-15 22:59N 33°43' W 118°13'0 0.0
2017-Apr-15 22:29N 33°43' W 118°13'0 0.0
2017-Apr-15 21:59N 33°43' W 118°13'0 0.0
2017-Apr-15 21:29N 33°43' W 118°13'0 0.1
2017-Apr-15 20:59N 33°43' W 118°13'0 0.4
2017-Apr-15 20:30N 33°42' W 118°13'1 1.6
2017-Apr-15 20:01N 33°42' W 118°13'2 4.6
2017-Apr-15 19:30N 33°39' W 118°13'4 8.4
2017-Apr-15 19:01N 33°36' W 118°16'510.9
2017-Apr-15 18:30N 33°37' W 118°23'611.9
2017-Apr-15 18:01N 33°40' W 118°29'611.9
2017-Apr-15 17:31N 33°43' W 118°35'611.8
2017-Apr-15 17:00N 33°46' W 118°41'611.7
2017-Apr-15 16:31N 33°49' W 118°47'611.8
2017-Apr-15 16:00N 33°52' W 118°54'611.9
2017-Apr-15 15:30N 33°55' W 118°60'611.9
2017-Apr-15 15:01N 33°58' W 119°06'1212.3
2017-Apr-15 14:00N 34°03' W 119°19'713.1
2017-Apr-15 13:31N 34°05' W 119°27'612.7
2017-Apr-15 13:01N 34°07' W 119°34'612.8
2017-Apr-15 12:30N 34°08' W 119°42'612.9
2017-Apr-15 12:01N 34°10' W 119°49'612.5
2017-Apr-15 11:30N 34°12' W 119°57'612.2
2017-Apr-15 11:00N 34°13' W 120°04'612.0
2017-Apr-15 10:28N 34°15' W 120°11'511.7
2017-Apr-15 10:00N 34°16' W 120°18'611.7
2017-Apr-15 09:30N 34°18' W 120°24'611.8
2017-Apr-15 09:00N 34°19' W 120°31'612.2
2017-Apr-15 08:30N 34°21' W 120°38'612.5
2017-Apr-15 08:00N 34°22' W 120°46'510.7
2017-Apr-15 07:30N 34°21' W 120°52'610.9
2017-Apr-15 07:00N 34°18' W 120°58'611.0
2017-Apr-15 06:30N 34°15' W 121°03'611.5
2017-Apr-15 06:00N 34°12' W 121°09'611.5
2017-Apr-15 05:30N 34°09' W 121°15'611.3
2017-Apr-15 05:00N 34°06' W 121°20'611.1
2017-Apr-15 04:31N 34°03' W 121°26'611.4
2017-Apr-15 04:01N 33°60' W 121°32'611.9
2017-Apr-15 03:30N 33°57' W 121°38'612.2
2017-Apr-15 03:01N 33°55' W 121°45'612.1
2017-Apr-15 02:30N 33°52' W 121°52'  

Dump ship's entire track history